Time;durP1;ratioP1;P1;durP2;ratioP2;P2;SDS_P1;SDS_P2;PMS_P1;PMS_P2;Temp;Humidity;BMP_temperature;BMP_pressure;BME280_temperature;BME280_humidity;BME280_pressure;Samples;Min_cycle;Max_cycle;Signal;HPM_P1;HPM_P2
2022/06/19 00:00:29;;;;;;;2.40;0.80;;;26.90;77.40;;;;;;5093987;28;20104;-48
2022/06/19 00:02:54;;;;;;;2.88;0.90;;;27.00;78.00;;;;;;5093657;28;20132;-48
2022/06/19 00:05:20;;;;;;;3.30;1.25;;;27.30;78.40;;;;;;5093917;28;20373;-49
2022/06/19 00:07:45;;;;;;;2.75;1.05;;;27.40;71.10;;;;;;5093853;28;20036;-49
2022/06/19 00:10:11;;;;;;;2.55;0.80;;;27.10;50.40;;;;;;5093864;28;20020;-50
2022/06/19 00:12:38;;;;;;;3.70;1.40;;;27.30;77.80;;;;;;5093696;28;20479;-47
2022/06/19 00:15:04;;;;;;;1.90;0.73;;;27.10;50.40;;;;;;5093695;28;20082;-48
2022/06/19 00:17:30;;;;;;;3.22;0.80;;;26.80;77.10;;;;;;5093511;28;20021;-49
2022/06/19 00:19:55;;;;;;;2.40;0.70;;;27.10;77.60;;;;;;5093503;28;20027;-47
2022/06/19 00:22:21;;;;;;;2.50;0.90;;;27.10;50.30;;;;;;5093474;28;20039;-48
2022/06/19 00:24:46;;;;;;;3.45;1.00;;;27.30;78.90;;;;;;5093435;28;20051;-49
2022/06/19 00:27:12;;;;;;;4.32;0.95;;;27.20;79.40;;;;;;5093480;28;20490;-48
2022/06/19 00:29:38;;;;;;;2.47;0.88;;;27.30;78.00;;;;;;5093275;28;20050;-48
2022/06/19 00:32:07;;;;;;;3.17;0.98;;;26.70;77.60;;;;;;5093465;28;20099;-47
2022/06/19 00:34:35;;;;;;;2.67;0.93;;;27.00;77.60;;;;;;5093485;28;20020;-47
2022/06/19 00:37:01;;;;;;;2.40;0.80;;;26.90;77.40;;;;;;5093257;28;20024;-49
2022/06/19 00:39:28;;;;;;;3.13;0.88;;;27.10;49.50;;;;;;5093155;28;20038;-47
2022/06/19 00:41:54;;;;;;;3.17;0.80;;;27.00;77.50;;;;;;5093214;28;20080;-48
2022/06/19 00:44:21;;;;;;;3.50;0.70;;;27.00;50.10;;;;;;5093075;28;20560;-47
2022/06/19 00:46:53;;;;;;;2.78;0.82;;;27.30;77.60;;;;;;5093290;28;20394;-47
2022/06/19 00:49:37;;;;;;;5.07;1.38;;;27.30;77.70;;;;;;5092841;28;20039;-48
2022/06/19 00:52:02;;;;;;;2.47;0.90;;;27.30;77.50;;;;;;5093362;28;20020;-53
2022/06/19 00:54:31;;;;;;;3.50;1.10;;;27.30;79.00;;;;;;5093211;28;20427;-52
2022/06/19 00:56:56;;;;;;;4.45;1.10;;;26.90;77.30;;;;;;5092860;28;20028;-51
2022/06/19 00:59:23;;;;;;;3.50;1.02;;;27.20;78.80;;;;;;5092879;28;20031;-52
2022/06/19 01:01:49;;;;;;;3.78;0.88;;;27.30;77.70;;;;;;5093015;28;20385;-50
2022/06/19 01:04:34;;;;;;;3.22;1.00;;;27.00;77.50;;;;;;5092550;28;20506;-54
2022/06/19 01:07:00;;;;;;;3.95;1.38;;;;;;;;;;5092806;28;20024;-53
2022/06/19 01:09:25;;;;;;;3.80;1.23;;;27.00;77.40;;;;;;5093023;28;20024;-53
2022/06/19 01:11:51;;;;;;;4.30;1.15;;;27.20;77.60;;;;;;5092661;28;20364;-52
2022/06/19 01:14:20;;;;;;;3.78;1.10;;;26.90;77.30;;;;;;5092610;28;20031;-50
2022/06/19 01:16:46;;;;;;;4.90;1.10;;;27.00;77.40;;;;;;5092902;28;20020;-52
2022/06/19 01:19:26;;;;;;;5.10;1.10;;;27.20;77.10;;;;;;5092520;28;20032;-50
2022/06/19 01:21:58;;;;;;;;;;;26.90;49.60;;;;;;5093219;28;20016;-52
2022/06/19 01:25:05;;;;;;;4.47;0.80;;;26.80;77.10;;;;;;5092530;28;19912;-53
2022/06/19 01:30:19;;;;;;;1.48;0.70;;;27.10;76.60;;;;;;5092807;28;20046;-48
2022/06/19 01:32:48;;;;;;;4.25;0.85;;;26.90;49.00;;;;;;5092416;28;20039;-47
2022/06/19 01:35:15;;;;;;;4.00;1.10;;;26.90;49.60;;;;;;5092347;28;20028;-47
2022/06/19 01:37:42;;;;;;;7.05;1.25;;;26.90;49.50;;;;;;5092355;28;20498;-48
2022/06/19 01:40:14;;;;;;;2.92;0.90;;;27.20;76.50;;;;;;5092260;28;20055;-48
2022/06/19 01:42:40;;;;;;;2.47;0.70;;;26.30;76.40;;;;;;5092226;28;20024;-47
2022/06/19 01:45:07;;;;;;;3.95;0.68;;;26.70;76.70;;;;;;5092263;28;20494;-52
2022/06/19 01:47:33;;;;;;;2.65;0.93;;;26.40;77.60;;;;;;5092345;28;20020;-47
2022/06/19 01:50:00;;;;;;;2.30;1.00;;;27.20;77.10;;;;;;5092275;28;20055;-48
2022/06/19 01:52:30;;;;;;;2.45;0.90;;;27.00;76.80;;;;;;5092443;28;20024;-47
2022/06/19 01:55:01;;;;;;;3.33;0.82;;;26.70;77.20;;;;;;5092216;28;20088;-46
2022/06/19 01:57:27;;;;;;;2.63;0.60;;;27.00;77.10;;;;;;5092212;28;20057;-47
2022/06/19 01:59:53;;;;;;;2.15;0.82;;;26.60;76.50;;;;;;5092076;28;20036;-48
2022/06/19 02:02:20;;;;;;;2.20;0.90;;;26.90;76.90;;;;;;5093894;28;20032;-48
2022/06/19 02:04:46;;;;;;;1.80;0.75;;;26.50;76.90;;;;;;5096562;28;20081;-52
2022/06/19 02:07:18;;;;;;;2.78;1.15;;;27.10;76.80;;;;;;5096233;28;20541;-53
2022/06/19 02:09:45;;;;;;;4.28;0.88;;;26.90;60.70;;;;;;5096236;28;20020;-50
2022/06/19 02:12:11;;;;;;;2.08;0.88;;;26.70;76.00;;;;;;5096339;28;20031;-52
2022/06/19 02:14:37;;;;;;;3.03;1.00;;;26.80;48.90;;;;;;5096061;28;20024;-53
2022/06/19 02:17:16;;;;;;;2.53;0.90;;;27.10;76.80;;;;;;5095999;28;20039;-54
2022/06/19 02:19:42;;;;;;;1.33;0.60;;;26.80;49.00;;;;;;5096319;28;20394;-50
2022/06/19 02:22:13;;;;;;;2.45;0.73;;;26.80;76.70;;;;;;5096109;28;20016;-51
2022/06/19 02:24:40;;;;;;;4.45;1.10;;;26.70;48.70;;;;;;5095820;28;20043;-53
2022/06/19 02:27:05;;;;;;;2.65;0.95;;;26.50;75.90;;;;;;5096000;28;20023;-52
2022/06/19 02:29:33;;;;;;;3.20;0.98;;;26.80;76.50;;;;;;5095697;28;20016;-50
2022/06/19 02:31:59;;;;;;;3.53;1.08;;;26.60;53.30;;;;;;5095671;28;20016;-51
2022/06/19 02:34:31;;;;;;;1.65;0.50;;;26.20;75.70;;;;;;5095612;28;20387;-52
2022/06/19 02:36:59;;;;;;;3.40;0.82;;;26.60;48.70;;;;;;5095608;28;20497;-53
2022/06/19 02:39:43;;;;;;;3.15;0.82;;;26.70;76.20;;;;;;5095576;28;20462;-54
2022/06/19 02:42:30;;;;;;;4.03;0.93;;;26.60;75.70;;;;;;5095506;28;20102;-48
2022/06/19 02:45:01;;;;;;;4.03;1.00;;;26.70;48.50;;;;;;5095816;28;20417;-47
2022/06/19 02:47:30;;;;;;;2.95;0.73;;;26.90;76.50;;;;;;5095479;28;20051;-48
2022/06/19 02:49:56;;;;;;;5.75;1.17;;;26.70;48.40;;;;;;5095382;28;20078;-48
2022/06/19 02:52:21;;;;;;;2.20;0.68;;;26.60;76.60;;;;;;5095364;28;20032;-47
2022/06/19 02:54:48;;;;;;;2.83;0.85;;;26.90;76.70;;;;;;5095258;28;20031;-47
2022/06/19 02:57:14;;;;;;;4.00;0.73;;;26.70;76.10;;;;;;5095214;28;20131;-47
2022/06/19 02:59:40;;;;;;;3.50;1.00;;;26.70;76.10;;;;;;5095275;28;20025;-46
2022/06/19 03:02:07;;;;;;;3.13;1.23;;;26.40;75.60;;;;;;5095113;28;20077;-48
2022/06/19 03:04:42;;;;;;;3.40;1.15;;;26.80;75.90;;;;;;5094841;28;20044;-48
2022/06/19 03:07:07;;;;;;;2.10;0.60;;;26.80;67.00;;;;;;5095231;28;20024;-47
2022/06/19 03:09:33;;;;;;;3.33;1.15;;;26.30;76.10;;;;;;5094964;28;20051;-48
2022/06/19 03:11:59;;;;;;;2.97;0.90;;;26.50;75.90;;;;;;5094971;28;20382;-50
2022/06/19 03:14:25;;;;;;;2.58;1.05;;;;;;;;;;5094773;28;20105;-48
2022/06/19 03:16:51;;;;;;;4.97;1.00;;;26.60;47.70;;;;;;5094845;28;20475;-48
2022/06/19 03:19:17;;;;;;;3.20;1.17;;;26.30;76.00;;;;;;5094786;28;20020;-48
2022/06/19 03:21:43;;;;;;;2.63;0.70;;;26.90;76.00;;;;;;5094759;28;20020;-50
2022/06/19 03:24:09;;;;;;;2.90;0.88;;;26.60;76.00;;;;;;5094642;28;20039;-48
2022/06/19 03:26:35;;;;;;;3.80;1.05;;;26.80;75.70;;;;;;5094601;28;20032;-47
2022/06/19 03:29:01;;;;;;;2.33;0.88;;;26.80;76.10;;;;;;5094591;28;20612;-48
2022/06/19 03:31:28;;;;;;;2.38;0.63;;;26.80;76.20;;;;;;5094534;28;20020;-48
2022/06/19 03:33:55;;;;;;;3.33;0.77;;;26.60;76.00;;;;;;5094593;28;20036;-47
2022/06/19 03:36:21;;;;;;;2.30;0.80;;;26.80;76.30;;;;;;5094623;28;20020;-47
2022/06/19 03:38:47;;;;;;;4.35;1.10;;;26.50;75.90;;;;;;5094560;28;20028;-46
2022/06/19 03:41:13;;;;;;;3.42;0.95;;;26.30;77.50;;;;;;5094714;28;20424;-48
2022/06/19 03:43:39;;;;;;;3.92;0.88;;;26.30;75.90;;;;;;5094510;28;20036;-48
2022/06/19 03:46:13;;;;;;;1.42;0.73;;;26.50;76.10;;;;;;5094301;28;20036;-47
2022/06/19 03:48:40;;;;;;;3.22;0.80;;;26.60;76.00;;;;;;5094484;28;20032;-47
2022/06/19 03:51:05;;;;;;;2.67;0.93;;;26.10;76.00;;;;;;5094232;28;20020;-46
2022/06/19 03:53:31;;;;;;;2.42;0.90;;;26.70;76.50;;;;;;5094359;28;20051;-46
2022/06/19 03:55:58;;;;;;;4.93;1.02;;;26.70;76.30;;;;;;5094161;28;20027;-52
2022/06/19 03:58:23;;;;;;;3.97;1.05;;;26.30;75.90;;;;;;5094054;28;20027;-50
2022/06/19 04:00:49;;;;;;;2.40;0.80;;;26.20;75.40;;;;;;5093981;28;20028;-53
2022/06/19 04:03:14;;;;;;;2.40;0.82;;;26.70;75.80;;;;;;5093653;28;20106;-51
2022/06/19 04:05:40;;;;;;;3.70;0.95;;;26.50;75.90;;;;;;5093886;28;20475;-50
2022/06/19 04:08:06;;;;;;;4.20;1.15;;;26.50;48.30;;;;;;5093896;28;20040;-51
2022/06/19 04:10:32;;;;;;;1.52;0.70;;;26.40;76.10;;;;;;5093745;28;20016;-52
2022/06/19 04:12:57;;;;;;;2.00;0.75;;;26.60;76.20;;;;;;5093830;28;20067;-48
2022/06/19 04:15:23;;;;;;;3.65;1.02;;;26.40;76.00;;;;;;5093742;28;20028;-47
2022/06/19 04:17:49;;;;;;;3.83;0.57;;;26.60;76.00;;;;;;5093895;28;20016;-47
2022/06/19 04:20:14;;;;;;;2.47;0.65;;;26.00;75.70;;;;;;5093943;28;20487;-47
2022/06/19 04:22:40;;;;;;;4.50;1.10;;;26.00;76.20;;;;;;5093731;28;20459;-46
2022/06/19 04:25:13;;;;;;;3.42;0.80;;;25.90;75.90;;;;;;5093220;28;20035;-47
2022/06/19 04:27:39;;;;;;;3.20;0.80;;;26.30;76.80;;;;;;5093683;28;20382;-48
2022/06/19 04:30:06;;;;;;;2.15;0.75;;;26.20;76.30;;;;;;5093375;28;20032;-47
2022/06/19 04:32:31;;;;;;;2.47;0.70;;;26.80;76.50;;;;;;5093388;28;20024;-52
2022/06/19 04:34:57;;;;;;;2.58;1.02;;;26.30;76.30;;;;;;5093592;28;20020;-54
2022/06/19 04:37:22;;;;;;;4.35;1.10;;;26.30;76.00;;;;;;5093342;28;20032;-52
2022/06/19 04:39:48;;;;;;;2.47;1.00;;;26.50;76.60;;;;;;5093185;28;20024;-54
2022/06/19 04:42:14;;;;;;;2.53;0.82;;;;;;;;;;5093174;28;20111;-52
2022/06/19 04:44:39;;;;;;;2.40;0.90;;;26.50;76.10;;;;;;5093032;28;20035;-53
2022/06/19 04:47:06;;;;;;;2.85;0.90;;;26.50;76.10;;;;;;5093056;28;20544;-51
2022/06/19 04:49:31;;;;;;;2.90;0.85;;;26.60;76.30;;;;;;5093165;28;20103;-53
2022/06/19 04:51:57;;;;;;;4.47;0.90;;;26.40;76.30;;;;;;5093061;28;20107;-51
2022/06/19 04:54:22;;;;;;;3.28;0.73;;;26.70;76.70;;;;;;5093042;28;20073;-51
2022/06/19 04:56:48;;;;;;;1.90;0.70;;;26.50;76.40;;;;;;5092907;28;20028;-50
2022/06/19 04:59:14;;;;;;;4.60;1.05;;;26.60;77.20;;;;;;5092950;28;20028;-52
2022/06/19 05:01:40;;;;;;;1.35;0.77;;;26.40;76.70;;;;;;5092769;28;20030;-50
2022/06/19 05:04:11;;;;;;;2.45;0.60;;;26.60;76.70;;;;;;5092630;28;20052;-52
2022/06/19 05:06:37;;;;;;;1.92;0.75;;;26.10;76.30;;;;;;5092770;28;20020;-51
2022/06/19 05:09:04;;;;;;;2.47;0.90;;;26.10;76.20;;;;;;5092758;28;20095;-51
2022/06/19 05:11:31;;;;;;;2.28;0.93;;;26.00;76.20;;;;;;5092788;28;20413;-52
2022/06/19 05:13:57;;;;;;;4.13;1.10;;;26.50;53.70;;;;;;5092669;28;20039;-50
2022/06/19 05:16:24;;;;;;;1.05;0.60;;;26.20;76.80;;;;;;5092647;28;20024;-52
2022/06/19 05:18:53;;;;;;;1.63;0.63;;;26.10;76.40;;;;;;5092532;28;20050;-53
2022/06/19 05:21:19;;;;;;;6.28;1.27;;;26.10;77.00;;;;;;5092545;28;20027;-52
2022/06/19 05:23:47;;;;;;;2.58;0.93;;;26.10;76.70;;;;;;5092599;28;20040;-52
2022/06/19 05:26:25;;;;;;;2.88;0.80;;;26.50;77.00;;;;;;5092575;28;20070;-53
2022/06/19 05:28:51;;;;;;;3.17;0.80;;;25.90;76.40;;;;;;5092506;28;20486;-53
2022/06/19 05:31:18;;;;;;;1.95;0.75;;;26.30;76.40;;;;;;5092478;28;20028;-53
2022/06/19 05:33:44;;;;;;;2.80;0.80;;;26.50;76.60;;;;;;5092414;28;20028;-53
2022/06/19 05:36:10;;;;;;;1.90;0.60;;;26.00;76.20;;;;;;5091800;28;20015;-52
2022/06/19 05:38:36;;;;;;;4.15;1.20;;;26.20;76.90;;;;;;5092407;28;20028;-51
2022/06/19 05:41:04;;;;;;;3.20;0.90;;;25.80;76.50;;;;;;5092260;28;20042;-53
2022/06/19 05:43:32;;;;;;;4.03;1.20;;;26.50;77.10;;;;;;5092329;28;20050;-52
2022/06/19 05:46:01;;;;;;;2.85;1.02;;;26.40;77.20;;;;;;5092627;28;20028;-54
2022/06/19 05:48:27;;;;;;;2.15;0.65;;;26.20;78.00;;;;;;5092257;28;20486;-55
2022/06/19 05:51:01;;;;;;;1.88;0.88;;;26.20;77.10;;;;;;5092223;28;20066;-51
2022/06/19 05:53:29;;;;;;;3.38;0.85;;;26.30;77.20;;;;;;5092152;28;20075;-54
2022/06/19 05:55:54;;;;;;;3.10;0.70;;;25.80;76.50;;;;;;5092178;28;20024;-52
2022/06/19 05:58:20;;;;;;;3.38;0.80;;;26.00;77.00;;;;;;5092084;28;20032;-53
2022/06/19 06:00:46;;;;;;;2.60;0.93;;;26.00;72.40;;;;;;5092367;28;20012;-51
2022/06/19 06:03:19;;;;;;;1.85;0.77;;;26.40;77.10;;;;;;5091712;28;20039;-47
2022/06/19 06:05:45;;;;;;;3.10;1.10;;;25.90;76.90;;;;;;5092152;28;20077;-48
2022/06/19 06:08:12;;;;;;;3.13;0.80;;;26.20;77.20;;;;;;5092033;28;20429;-47
2022/06/19 06:10:39;;;;;;;2.22;0.70;;;26.30;77.30;;;;;;5091992;28;20108;-49
2022/06/19 06:13:04;;;;;;;3.50;1.05;;;26.20;77.10;;;;;;5092050;28;20028;-47
2022/06/19 06:15:30;;;;;;;3.85;1.17;;;26.00;76.70;;;;;;5092004;28;20034;-47
2022/06/19 06:17:58;;;;;;;2.78;1.20;;;25.80;56.30;;;;;;5091937;28;20107;-47
2022/06/19 06:20:25;;;;;;;2.70;0.90;;;25.70;76.40;;;;;;5092027;28;20020;-47
2022/06/19 06:22:50;;;;;;;2.35;1.00;;;26.20;76.90;;;;;;5091928;28;20020;-46
2022/06/19 06:25:16;;;;;;;3.95;1.00;;;26.20;77.00;;;;;;5091884;28;20475;-47
2022/06/19 06:27:41;;;;;;;2.90;1.00;;;26.00;77.00;;;;;;5091962;28;20024;-47
2022/06/19 06:30:07;;;;;;;3.13;1.02;;;25.70;76.70;;;;;;5091826;28;20024;-48
2022/06/19 06:32:33;;;;;;;2.90;1.25;;;26.00;77.00;;;;;;5091868;28;20012;-47
2022/06/19 06:34:59;;;;;;;4.10;1.00;;;26.00;77.30;;;;;;5091792;28;20144;-48
2022/06/19 06:37:25;;;;;;;3.42;0.73;;;26.30;77.30;;;;;;5091771;28;20062;-46
2022/06/19 06:39:50;;;;;;;5.03;1.10;;;26.10;76.90;;;;;;5092066;28;20316;-49
2022/06/19 06:42:16;;;;;;;3.00;0.57;;;26.10;77.00;;;;;;5091946;28;20081;-48
2022/06/19 06:44:41;;;;;;;4.13;0.88;;;26.20;77.30;;;;;;5091651;28;20036;-46
2022/06/19 06:47:07;;;;;;;4.05;1.10;;;25.90;77.20;;;;;;5091868;28;20020;-48
2022/06/19 06:49:33;;;;;;;5.07;0.90;;;26.10;77.20;;;;;;5095422;28;20031;-48
2022/06/19 06:51:59;;;;;;;3.47;1.02;;;26.20;77.10;;;;;;5095330;28;20028;-48
2022/06/19 06:54:24;;;;;;;3.53;0.98;;;25.90;76.80;;;;;;5095280;28;20028;-48
2022/06/19 06:56:50;;;;;;;2.25;1.00;;;26.20;77.00;;;;;;5095299;28;20036;-48
2022/06/19 06:59:16;;;;;;;4.15;1.13;;;;;;;;;;5095291;28;20091;-48
2022/06/19 07:01:41;;;;;;;1.95;0.90;;;26.10;76.80;;;;;;5095141;28;20032;-47
2022/06/19 07:04:08;;;;;;;2.55;1.08;;;26.10;76.80;;;;;;5094823;28;20083;-47
2022/06/19 07:06:34;;;;;;;5.28;1.02;;;25.80;77.10;;;;;;5095150;28;20041;-48
2022/06/19 07:09:00;;;;;;;1.75;0.90;;;26.00;77.50;;;;;;5094910;28;20053;-47
2022/06/19 07:11:38;;;;;;;3.63;1.20;;;26.00;77.40;;;;;;5094658;28;20063;-49
2022/06/19 07:14:04;;;;;;;7.50;1.35;;;26.00;78.20;;;;;;5094950;28;20035;-48
2022/06/19 07:16:30;;;;;;;4.78;1.00;;;;;;;;;;5094773;28;20103;-52
2022/06/19 07:18:56;;;;;;;8.82;1.40;;;25.70;78.00;;;;;;5094952;28;20074;-48
2022/06/19 07:21:22;;;;;;;4.63;0.82;;;25.60;78.00;;;;;;5094718;28;20028;-48
2022/06/19 07:23:48;;;;;;;3.97;1.08;;;25.60;78.20;;;;;;5094933;28;20031;-48
2022/06/19 07:26:16;;;;;;;3.33;0.95;;;25.80;78.40;;;;;;5094543;28;20081;-48
2022/06/19 07:28:42;;;;;;;4.65;0.90;;;25.70;78.20;;;;;;5094475;28;20024;-48
2022/06/19 07:31:09;;;;;;;3.10;1.00;;;26.00;78.20;;;;;;5094414;28;20032;-47
2022/06/19 07:33:35;;;;;;;4.82;1.10;;;26.10;78.20;;;;;;5094366;28;20024;-48
2022/06/19 07:36:01;;;;;;;3.78;1.20;;;25.80;78.50;;;;;;5094686;28;20020;-48
2022/06/19 07:38:27;;;;;;;5.97;1.38;;;25.90;77.90;;;;;;5094300;28;20066;-49
2022/06/19 07:40:52;;;;;;;3.40;0.80;;;26.10;78.20;;;;;;5094467;28;20016;-47
2022/06/19 07:43:18;;;;;;;5.55;0.93;;;26.00;78.20;;;;;;5094080;28;20459;-48
2022/06/19 07:45:43;;;;;;;3.42;1.20;;;25.90;78.10;;;;;;5094206;28;20042;-47
2022/06/19 07:50:54;;;;;;;3.85;1.27;;;26.30;78.50;;;;;;5094130;28;20055;-48
2022/06/19 07:53:20;;;;;;;2.92;1.10;;;25.80;67.30;;;;;;5094206;28;20483;-49
2022/06/19 07:55:45;;;;;;;3.10;1.15;;;26.30;78.60;;;;;;5094126;28;20056;-47
2022/06/19 07:58:11;;;;;;;5.13;0.82;;;25.80;78.30;;;;;;5094041;28;20093;-47
2022/06/19 08:00:37;;;;;;;6.55;0.90;;;25.80;78.00;;;;;;5093086;28;20025;-46
2022/06/19 08:03:04;;;;;;;3.60;0.93;;;25.90;77.80;;;;;;5093797;28;20130;-47
2022/06/19 08:05:32;;;;;;;5.20;1.52;;;26.20;77.10;;;;;;5093796;28;20514;-48
2022/06/19 08:08:00;;;;;;;5.25;1.50;;;25.90;75.80;;;;;;5093824;28;20137;-47
2022/06/19 08:10:33;;;;;;;5.53;1.55;;;25.80;47.90;;;;;;5093780;28;20020;-48
2022/06/19 08:12:59;;;;;;;5.72;1.40;;;25.90;76.30;;;;;;5093947;28;20107;-48
2022/06/19 08:15:25;;;;;;;8.05;1.52;;;25.70;47.50;;;;;;5093560;28;20024;-48
2022/06/19 08:17:51;;;;;;;8.45;1.40;;;25.50;75.90;;;;;;5093466;28;20028;-48
2022/06/19 08:20:19;;;;;;;7.25;1.98;;;25.60;76.20;;;;;;5093655;28;20024;-48
2022/06/19 08:22:45;;;;;;;5.30;1.65;;;25.60;76.20;;;;;;5093681;28;20521;-48
2022/06/19 08:25:13;;;;;;;9.10;2.00;;;25.10;75.90;;;;;;5093607;28;20028;-47
2022/06/19 08:27:42;;;;;;;7.72;1.50;;;25.70;76.20;;;;;;5093471;28;20073;-46
2022/06/19 08:30:11;;;;;;;8.98;2.03;;;25.70;76.40;;;;;;5093380;28;20031;-51
2022/06/19 08:32:37;;;;;;;5.32;1.88;;;25.60;76.60;;;;;;5093371;28;20016;-48
2022/06/19 08:35:04;;;;;;;8.32;1.65;;;25.40;76.60;;;;;;5093429;28;20514;-47
2022/06/19 08:37:30;;;;;;;7.85;1.77;;;25.40;76.60;;;;;;5093182;28;20028;-47
2022/06/19 08:39:55;;;;;;;8.40;1.40;;;25.70;77.20;;;;;;5093108;28;20138;-47
2022/06/19 08:42:32;;;;;;;7.47;1.70;;;25.20;76.60;;;;;;5093296;28;20059;-47
2022/06/19 08:45:23;;;;;;;4.95;1.48;;;25.30;76.80;;;;;;5093005;28;20032;-48
2022/06/19 08:48:19;;;;;;;7.07;1.70;;;25.30;77.10;;;;;;5093062;28;20028;-48
2022/06/19 08:51:07;;;;;;;8.20;1.63;;;25.50;77.20;;;;;;5092538;28;20329;-50
2022/06/19 08:53:52;;;;;;;4.45;1.13;;;25.10;77.50;;;;;;5093291;28;20089;-49
2022/06/19 08:56:33;;;;;;;7.55;1.85;;;25.30;77.60;;;;;;5075215;28;20085;-51
2022/06/19 08:59:28;;;;;;;6.93;1.63;;;25.30;77.70;;;;;;5092941;28;20054;-48
2022/06/19 09:02:11;;;;;;;6.82;2.20;;;25.30;48.60;;;;;;5053466;28;20047;-50
2022/06/19 09:08:13;;;;;;;5.50;1.70;;;25.70;78.20;;;;;;5093173;28;20458;-47
2022/06/19 09:10:47;;;;;;;5.38;1.40;;;25.40;77.60;;;;;;5017001;28;20391;-49
2022/06/19 09:13:50;;;;;;;6.50;1.65;;;25.60;77.80;;;;;;5093001;28;20364;-48
2022/06/19 09:16:47;;;;;;;6.90;1.63;;;25.50;77.50;;;;;;5092704;28;20059;-47
2022/06/19 09:19:20;;;;;;;6.95;1.70;;;25.40;76.10;;;;;;5092477;28;20052;-47
2022/06/19 09:22:07;;;;;;;5.72;1.67;;;25.30;60.60;;;;;;5092295;28;20038;-47
2022/06/19 09:24:41;;;;;;;7.72;1.67;;;25.50;49.20;;;;;;5092278;28;20544;-47
2022/06/19 09:27:10;;;;;;;6.43;1.95;;;25.70;78.20;;;;;;5092409;28;20099;-48
2022/06/19 09:29:47;;;;;;;4.22;1.40;;;25.70;78.20;;;;;;5092262;28;20058;-47
2022/06/19 09:32:31;;;;;;;7.85;1.75;;;25.00;68.90;;;;;;5092657;28;20035;-47
2022/06/19 09:35:26;;;;;;;7.20;1.92;;;25.40;77.80;;;;;;5092336;28;20024;-46
2022/06/19 09:38:04;;;;;;;8.98;2.03;;;25.40;78.00;;;;;;5070361;28;20397;-47
2022/06/19 09:40:34;;;;;;;5.65;1.67;;;25.30;65.10;;;;;;5092332;28;20032;-47
2022/06/19 09:43:13;;;;;;;5.05;1.63;;;25.70;78.30;;;;;;5092391;28;20020;-47
2022/06/19 09:45:46;;;;;;;6.50;2.20;;;25.60;49.10;;;;;;5092621;28;20123;-48
2022/06/19 09:48:53;;;;;;;6.63;2.08;;;25.50;49.10;;;;;;5092154;28;20384;-49
2022/06/19 09:51:39;;;;;;;6.80;1.70;;;25.80;78.30;;;;;;5042937;28;20435;-49
2022/06/19 09:54:14;;;;;;;7.28;1.55;;;25.50;78.30;;;;;;5092132;28;20035;-50
2022/06/19 09:56:49;;;;;;;5.05;1.77;;;25.50;48.90;;;;;;5092239;28;20021;-48
2022/06/19 09:59:24;;;;;;;10.93;1.52;;;25.90;78.00;;;;;;5092093;28;20584;-49
2022/06/19 10:01:56;;;;;;;7.05;1.92;;;25.60;77.50;;;;;;5092103;28;20042;-50
2022/06/19 10:04:27;;;;;;;4.97;1.30;;;25.60;77.90;;;;;;5092015;28;20465;-50
2022/06/19 10:07:00;;;;;;;5.53;1.48;;;25.70;77.80;;;;;;5091957;28;20073;-52
2022/06/19 10:09:34;;;;;;;6.60;1.33;;;25.50;77.80;;;;;;5091964;28;20024;-50
2022/06/19 10:12:02;;;;;;;5.93;1.20;;;25.10;63.20;;;;;;5091921;28;20032;-49
2022/06/19 10:14:28;;;;;;;6.32;1.27;;;25.30;73.30;;;;;;5091875;28;20478;-48
2022/06/19 10:17:25;;;;;;;7.57;1.05;;;25.30;77.60;;;;;;5091797;28;20064;-52
2022/06/19 10:19:57;;;;;;;5.60;1.45;;;25.10;77.10;;;;;;5084786;28;20518;-51
2022/06/19 10:22:26;;;;;;;5.60;1.40;;;25.30;77.70;;;;;;5092305;28;20028;-52
2022/06/19 10:25:18;;;;;;;5.07;1.00;;;25.50;77.60;;;;;;5096047;28;20036;-53
2022/06/19 10:28:10;;;;;;;8.07;1.30;;;25.70;77.70;;;;;;5095782;28;20462;-50
2022/06/19 10:30:54;;;;;;;5.00;1.20;;;25.80;78.20;;;;;;5095965;28;20023;-52
2022/06/19 10:33:48;;;;;;;4.20;1.13;;;25.50;78.20;;;;;;5095665;28;20057;-49
2022/06/19 10:36:27;;;;;;;3.67;1.20;;;25.00;77.20;;;;;;5095575;28;20074;-48
2022/06/19 10:39:12;;;;;;;3.65;1.25;;;25.30;77.70;;;;;;5095650;28;20070;-47
2022/06/19 10:42:04;;;;;;;4.82;1.35;;;25.60;48.80;;;;;;5095729;28;20424;-49
2022/06/19 10:44:59;;;;;;;5.00;1.20;;;25.60;48.60;;;;;;5095424;28;20035;-48
2022/06/19 10:48:07;;;;;;;2.10;1.00;;;25.60;77.50;;;;;;5095528;28;20414;-48
2022/06/19 10:50:36;;;;;;;4.43;1.20;;;25.40;77.20;;;;;;5095248;28;20364;-48
2022/06/19 10:53:13;;;;;;;5.53;1.33;;;25.60;76.80;;;;;;5095289;28;20025;-50
2022/06/19 10:56:20;;;;;;;3.40;1.02;;;25.70;76.70;;;;;;5095364;28;20028;-50
2022/06/19 10:58:45;;;;;;;6.88;1.38;;;25.60;76.60;;;;;;5095259;28;20028;-52
2022/06/19 11:04:06;;;;;;;3.20;0.98;;;25.90;77.40;;;;;;5095369;28;20038;-48
2022/06/19 11:04:09;;;;;;;3.70;1.15;;;25.30;77.00;;;;;;5094819;28;20056;-48
2022/06/19 11:06:52;;;;;;;4.38;1.50;;;25.30;76.90;;;;;;5095316;28;20048;-49
2022/06/19 11:09:29;;;;;;;5.45;1.35;;;25.20;65.10;;;;;;5095009;28;20508;-49
2022/06/19 11:12:07;;;;;;;4.85;0.85;;;25.60;76.90;;;;;;5094962;28;20093;-47
2022/06/19 11:14:47;;;;;;;2.58;1.20;;;25.40;76.50;;;;;;5095041;28;20111;-48
2022/06/19 11:17:34;;;;;;;3.95;1.20;;;25.40;76.60;;;;;;5095023;28;20020;-51
2022/06/19 11:20:30;;;;;;;4.82;1.05;;;25.70;76.60;;;;;;5094205;28;20075;-50
2022/06/19 11:23:05;;;;;;;9.30;1.48;;;25.50;76.60;;;;;;5094694;28;20063;-49
2022/06/19 11:25:34;;;;;;;5.20;1.30;;;25.70;76.80;;;;;;5094724;28;20020;-49
2022/06/19 11:28:15;;;;;;;4.43;1.27;;;25.40;52.10;;;;;;5094727;28;20027;-52
2022/06/19 11:30:47;;;;;;;4.72;1.30;;;25.40;76.90;;;;;;5094623;28;20028;-50
2022/06/19 11:33:16;;;;;;;2.25;0.85;;;25.70;77.10;;;;;;5094539;28;20020;-58
2022/06/19 11:35:48;;;;;;;7.57;1.57;;;25.80;77.30;;;;;;5094007;28;20024;-50
2022/06/19 11:38:15;;;;;;;5.05;1.50;;;25.40;77.00;;;;;;5094731;28;20371;-51
2022/06/19 11:40:46;;;;;;;5.68;1.67;;;25.30;76.20;;;;;;5094427;28;20520;-51
2022/06/19 11:43:29;;;;;;;7.72;1.50;;;25.90;76.60;;;;;;5094220;28;20391;-51
2022/06/19 11:46:13;;;;;;;5.00;1.17;;;25.50;76.60;;;;;;5094659;28;20052;-51
2022/06/19 11:48:38;;;;;;;7.30;1.33;;;25.30;76.20;;;;;;5094325;28;20360;-50
2022/06/19 11:51:17;;;;;;;3.70;1.38;;;25.70;48.30;;;;;;5094371;28;20077;-52
2022/06/19 11:53:44;;;;;;;6.93;1.33;;;25.70;76.60;;;;;;5094599;28;20383;-50
2022/06/19 11:56:23;;;;;;;6.65;1.42;;;25.50;53.40;;;;;;5094280;28;20081;-52
2022/06/19 11:58:57;;;;;;;3.38;1.10;;;25.30;76.70;;;;;;5094193;28;20475;-52
2022/06/19 12:01:39;;;;;;;6.50;1.65;;;25.20;76.70;;;;;;5094035;28;20604;-51
2022/06/19 12:04:25;;;;;;;5.50;1.05;;;25.50;77.00;;;;;;5093828;28;20485;-49
2022/06/19 12:06:55;;;;;;;3.25;0.98;;;25.90;77.30;;;;;;5093922;28;20039;-50
2022/06/19 12:09:35;;;;;;;5.38;1.10;;;25.50;76.70;;;;;;5093971;28;20034;-50
2022/06/19 12:12:05;;;;;;;2.63;0.90;;;25.80;77.20;;;;;;5093947;28;20028;-50
2022/06/19 12:14:34;;;;;;;5.03;1.40;;;25.30;76.50;;;;;;5093803;28;20032;-51
2022/06/19 12:17:22;;;;;;;3.50;0.90;;;26.00;77.20;;;;;;5093825;28;20021;-51
2022/06/19 12:20:07;;;;;;;3.58;0.95;;;25.60;76.50;;;;;;5093635;28;20047;-49
2022/06/19 12:22:51;;;;;;;4.38;1.50;;;26.10;71.10;;;;;;5093829;28;20024;-49
2022/06/19 12:25:31;;;;;;;3.33;1.00;;;25.40;67.20;;;;;;5093621;28;20036;-54
2022/06/19 12:28:15;;;;;;;3.88;1.08;;;25.70;77.20;;;;;;5093635;28;20432;-55
2022/06/19 12:31:01;;;;;;;4.57;1.10;;;26.00;77.30;;;;;;5093516;28;20059;-48
2022/06/19 12:33:28;;;;;;;3.22;1.02;;;25.60;76.80;;;;;;5093515;28;20028;-48
2022/06/19 12:35:54;;;;;;;2.85;1.08;;;25.70;76.90;;;;;;5093368;28;20028;-48
2022/06/19 12:38:23;;;;;;;2.75;0.93;;;26.00;58.50;;;;;;5093332;28;20020;-49
2022/06/19 12:41:13;;;;;;;4.30;1.08;;;25.30;76.40;;;;;;5093266;28;20485;-49
2022/06/19 12:43:56;;;;;;;5.23;1.60;;;25.70;76.80;;;;;;5093276;28;20052;-48
2022/06/19 12:46:35;;;;;;;5.55;1.52;;;25.30;75.80;;;;;;5092925;28;20032;-49
2022/06/19 12:49:31;;;;;;;3.47;1.00;;;26.00;77.10;;;;;;5093237;28;20074;-55
2022/06/19 12:52:06;;;;;;;2.30;0.82;;;25.60;76.40;;;;;;5093050;28;20085;-54
2022/06/19 12:54:59;;;;;;;8.60;1.02;;;25.50;77.10;;;;;;5093064;28;20040;-53
2022/06/19 12:57:45;;;;;;;3.90;0.75;;;25.50;62.40;;;;;;5092954;28;20384;-54
2022/06/19 13:00:37;;;;;;;4.88;0.80;;;25.90;77.20;;;;;;5092953;28;20032;-55
2022/06/19 13:03:24;;;;;;;4.05;1.25;;;25.90;76.80;;;;;;5092514;28;20048;-51
2022/06/19 13:06:07;;;;;;;1.35;0.80;;;25.80;76.80;;;;;;5092805;28;20070;-53
2022/06/19 13:09:07;;;;;;;3.95;1.13;;;25.50;59.10;;;;;;5092833;28;20508;-47
2022/06/19 13:11:57;;;;;;;3.70;1.10;;;25.70;76.70;;;;;;5092894;28;20036;-46
2022/06/19 13:15:02;;;;;;;2.05;0.82;;;25.80;76.90;;;;;;5092762;28;20105;-46
2022/06/19 13:17:34;;;;;;;3.40;1.05;;;25.70;77.10;;;;;;5093048;28;20035;-46
2022/06/19 13:20:16;;;;;;;2.90;0.88;;;25.80;77.10;;;;;;5092898;28;20407;-46